Huvudsida
METAR-TAF:

METAR-TAF

Flygplatser :

Göteborg-Landvetter Airport

Göteborg-Landvetter, Sverige

latitud: 57-40N, longitud: 012-18E, höjd: 169 m

Aktuellt väderrapport

Denna rapport gjordes för 42 minuter sedan, klockan 19:50 UTC
Vind 7 kt från nordost
Temperatur 0°C
Fuktighet 86%
Tryck 1034 hPa
Sikt 10 km eller mer
Inga moln under 1 500 m eller inga cumulonimbus

METAR: ESGG 191950Z 04007KT CAVOK M00/M02 Q1034 R03/09//95

Tid: 21:32 (20:32 UTC)

Väderprognos

Denna rapport gjordes för 3 timmar och 2 minuter sedan, klockan 17:30 UTC
Prognos gäller från 19 kl. 18 UTC till 20 kl. 18 UTC
Vind 8 kt från ost/nordost
Sikt 10 km eller mer
Brutna moln på en höjd av 2000 ft
Sannolikhet 40%
från 19 kl. 18 UTC till 20 kl. 10 UTC
Brutna moln på en höjd av 1400 ft

TAF: ESGG 191730Z 1918/2018 06008KT 9999 BKN020 PROB40 1918/2010 BKN014

Aktuella väderrapporter och prognoser från 4000 flygplatser (METAR- och TAF-rapporter).

De tillgängliga stationerna syns som gula och röda prickar på kartan.

För musen över prickarna för att se namnen på stationerna.

Klicka sedan för att få väderrapporter och prognoser.

För att ändra kartan: Klicka på de gröna knapparna med ett svart kors på för att zooma in; den gröna knappen med ett streck på för att zooma ut; eller på de gröna pilarna för angränsande kartor.


METAR-TAF: